Etusivu
METAR-TAF:

METAR-TAF

Lentoasemat :

Hiroshima, Japani

Leveyspiiri: 34-26N, Pituuspiiri: 132-55E, korkeus merenpinnasta: 331 m

Tämänhetkinen sää

Tämä raportti tehtiin 1 tunti ja 2 minuuttia sitten, kello 06.00 UTC
Tuuli 15 kn lännestä/luoteesta
Lämpötila 7°C
Kosteus 61%
Ilmanpaine 1012 hPa
Näkyvyys 10 km tai enemmän
Muutamia pilviä 1500 ft:n korkeudessa
Hajonneita pilviä 2000 ft:n korkeudessa

METAR: RJOA 170600Z 29015KT 9999 FEW015 BKN020 07/M00 Q1012

Aika: 16:02 (07:02 UTC)

Sääennuste

Tämä raportti tehtiin 1 tunti ja 57 minuuttia sitten, kello 05.05 UTC
Ennuste voimassa 17. päivästä klo 06 UTC - 18. päivään klo 12 UTC
Tuuli 11 kn lännestä/luoteesta
Näkyvyys 10 km tai enemmän
Muutamia pilviä 1500 ft:n korkeudessa
Hajanaisia pilviä 2500 ft:n korkeudessa
Hajonneita pilviä 4000 ft:n korkeudessa

TAF: RJOA 170505Z 1706/1812 29011KT 9999 FEW015 SCT025 BKN040

Säähavainnot ja -ennusteet yli 4000 lentoasemalta (METAR- ja TAF-raportit).

Käytössä olevat sääasemat on merkitty karttaan keltaisilla ja punaisilla pisteillä.

Aseta hiiri pisteen päälle nähdäksesi sääaseman nimen.

Klikkaa sitten nähdäksesi säähavainnot ja -ennusteet.

Kartan vaihtaminen: klikkaa mustalla rastilla varustettuja vihreitä pisteitä, niin voit zoomata sisään; viivalla varustettua vihreää pistettä, niin voit zoomata ulos tai vihreitä nuolia, niin pääset viereisille kartoille.


METAR-TAF: